sensor_id;sensor_type;location;lat;lon;timestamp;pressure;altitude;pressure_sealevel;temperature
65316;BMP280;51920;53.952;10.292;2022-08-01T00:01:38;100802.03;;;18.52
65316;BMP280;51920;53.952;10.292;2022-08-01T00:04:04;100806.63;;;18.55
65316;BMP280;51920;53.952;10.292;2022-08-01T00:06:30;100811.72;;;18.56
65316;BMP280;51920;53.952;10.292;2022-08-01T00:08:55;100799.84;;;18.59
65316;BMP280;51920;53.952;10.292;2022-08-01T00:11:21;100802.69;;;18.56
65316;BMP280;51920;53.952;10.292;2022-08-01T00:13:47;100806.09;;;18.60
65316;BMP280;51920;53.952;10.292;2022-08-01T00:16:12;100799.06;;;18.59
65316;BMP280;51920;53.952;10.292;2022-08-01T00:18:38;100805.69;;;18.62
65316;BMP280;51920;53.952;10.292;2022-08-01T00:21:04;100807.63;;;18.61
65316;BMP280;51920;53.952;10.292;2022-08-01T00:23:30;100805.00;;;18.57
65316;BMP280;51920;53.952;10.292;2022-08-01T00:25:55;100803.81;;;18.58
65316;BMP280;51920;53.952;10.292;2022-08-01T00:28:20;100799.84;;;18.59
65316;BMP280;51920;53.952;10.292;2022-08-01T00:30:46;100803.59;;;18.66
65316;BMP280;51920;53.952;10.292;2022-08-01T00:33:11;100787.56;;;18.64
65316;BMP280;51920;53.952;10.292;2022-08-01T00:35:37;100800.09;;;18.65
65316;BMP280;51920;53.952;10.292;2022-08-01T00:38:02;100805.25;;;18.63
65316;BMP280;51920;53.952;10.292;2022-08-01T00:40:28;100802.84;;;18.65
65316;BMP280;51920;53.952;10.292;2022-08-01T00:42:53;100809.19;;;18.62
65316;BMP280;51920;53.952;10.292;2022-08-01T00:45:19;100805.34;;;18.59
65316;BMP280;51920;53.952;10.292;2022-08-01T00:47:44;100804.47;;;18.63
65316;BMP280;51920;53.952;10.292;2022-08-01T00:50:10;100798.97;;;18.63
65316;BMP280;51920;53.952;10.292;2022-08-01T00:52:39;100793.50;;;18.63
65316;BMP280;51920;53.952;10.292;2022-08-01T00:55:05;100797.03;;;18.63
65316;BMP280;51920;53.952;10.292;2022-08-01T00:57:31;100791.84;;;18.65
65316;BMP280;51920;53.952;10.292;2022-08-01T00:59:57;100792.38;;;18.60
65316;BMP280;51920;53.952;10.292;2022-08-01T01:02:22;100792.38;;;18.60
65316;BMP280;51920;53.952;10.292;2022-08-01T01:04:48;100791.19;;;18.61
65316;BMP280;51920;53.952;10.292;2022-08-01T01:07:20;100801.38;;;18.61
65316;BMP280;51920;53.952;10.292;2022-08-01T01:10:00;100795.91;;;18.61
65316;BMP280;51920;53.952;10.292;2022-08-01T01:15:18;100794.09;;;18.54
65316;BMP280;51920;53.952;10.292;2022-08-01T01:17:55;100801.06;;;18.58
65316;BMP280;51920;53.952;10.292;2022-08-01T01:20:27;100793.78;;;18.52
65316;BMP280;51920;53.952;10.292;2022-08-01T01:22:57;100800.84;;;18.53
65316;BMP280;51920;53.952;10.292;2022-08-01T01:28:19;100800.03;;;18.52
65316;BMP280;51920;53.952;10.292;2022-08-01T01:30:49;100795.53;;;18.46
65316;BMP280;51920;53.952;10.292;2022-08-01T01:33:17;100797.66;;;18.54
65316;BMP280;51920;53.952;10.292;2022-08-01T01:35:55;100798.63;;;18.48
65316;BMP280;51920;53.952;10.292;2022-08-01T01:38:28;100796.31;;;18.46
65316;BMP280;51920;53.952;10.292;2022-08-01T01:40:55;100803.78;;;18.46
65316;BMP280;51920;53.952;10.292;2022-08-01T01:43:23;100803.34;;;18.47
65316;BMP280;51920;53.952;10.292;2022-08-01T01:45:49;100799.56;;;18.41
65316;BMP280;51920;53.952;10.292;2022-08-01T01:48:20;100798.50;;;18.39
65316;BMP280;51920;53.952;10.292;2022-08-01T01:50:47;100806.72;;;18.39
65316;BMP280;51920;53.952;10.292;2022-08-01T01:53:16;100807.25;;;18.33
65316;BMP280;51920;53.952;10.292;2022-08-01T01:55:44;100802.72;;;18.40
65316;BMP280;51920;53.952;10.292;2022-08-01T01:58:12;100803.72;;;18.33
65316;BMP280;51920;53.952;10.292;2022-08-01T02:00:40;100806.03;;;18.34
65316;BMP280;51920;53.952;10.292;2022-08-01T02:03:09;100806.72;;;18.39
65316;BMP280;51920;53.952;10.292;2022-08-01T02:05:36;100800.78;;;18.40
65316;BMP280;51920;53.952;10.292;2022-08-01T02:08:03;100809.53;;;18.35
65316;BMP280;51920;53.952;10.292;2022-08-01T02:10:31;100809.88;;;18.37
65316;BMP280;51920;53.952;10.292;2022-08-01T02:12:59;100810.66;;;18.38
65316;BMP280;51920;53.952;10.292;2022-08-01T02:15:27;100808.31;;;18.36
65316;BMP280;51920;53.952;10.292;2022-08-01T02:17:56;100816.91;;;18.38
65316;BMP280;51920;53.952;10.292;2022-08-01T02:20:22;100810.75;;;18.34
65316;BMP280;51920;53.952;10.292;2022-08-01T02:23:06;100806.81;;;18.35
65316;BMP280;51920;53.952;10.292;2022-08-01T02:25:46;100817.00;;;18.34
65316;BMP280;51920;53.952;10.292;2022-08-01T02:28:25;100814.59;;;18.36
65316;BMP280;51920;53.952;10.292;2022-08-01T02:30:56;100818.53;;;18.35
65316;BMP280;51920;53.952;10.292;2022-08-01T02:33:28;100822.50;;;18.34
65316;BMP280;51920;53.952;10.292;2022-08-01T02:35:58;100819.41;;;18.32
65316;BMP280;51920;53.952;10.292;2022-08-01T02:38:25;100816.25;;;18.34
65316;BMP280;51920;53.952;10.292;2022-08-01T02:40:54;100818.75;;;18.28
65316;BMP280;51920;53.952;10.292;2022-08-01T02:43:24;100809.94;;;18.21
65316;BMP280;51920;53.952;10.292;2022-08-01T02:45:53;100811.47;;;18.22
65316;BMP280;51920;53.952;10.292;2022-08-01T02:48:20;100817.69;;;18.22
65316;BMP280;51920;53.952;10.292;2022-08-01T02:50:51;100815.75;;;18.23
65316;BMP280;51920;53.952;10.292;2022-08-01T02:53:19;100815.41;;;18.21
65316;BMP280;51920;53.952;10.292;2022-08-01T02:55:46;100818.50;;;18.23
65316;BMP280;51920;53.952;10.292;2022-08-01T02:58:15;100822.00;;;18.23
65316;BMP280;51920;53.952;10.292;2022-08-01T03:00:42;100825.94;;;18.22
65316;BMP280;51920;53.952;10.292;2022-08-01T03:03:09;100831.50;;;18.19
65316;BMP280;51920;53.952;10.292;2022-08-01T03:05:35;100829.63;;;18.16
65316;BMP280;51920;53.952;10.292;2022-08-01T03:08:01;100828.44;;;18.17
65316;BMP280;51920;53.952;10.292;2022-08-01T03:10:28;100837.88;;;18.16
65316;BMP280;51920;53.952;10.292;2022-08-01T03:12:55;100832.38;;;18.16
65316;BMP280;51920;53.952;10.292;2022-08-01T03:15:23;100833.16;;;18.16
65316;BMP280;51920;53.952;10.292;2022-08-01T03:17:51;100835.47;;;18.18
65316;BMP280;51920;53.952;10.292;2022-08-01T03:20:18;100830.41;;;18.16
65316;BMP280;51920;53.952;10.292;2022-08-01T03:22:47;100832.81;;;18.14
65316;BMP280;51920;53.952;10.292;2022-08-01T03:25:15;100841.06;;;18.14
65316;BMP280;51920;53.952;10.292;2022-08-01T03:27:42;100830.50;;;18.12
65316;BMP280;51920;53.952;10.292;2022-08-01T03:30:08;100837.16;;;18.11
65316;BMP280;51920;53.952;10.292;2022-08-01T03:32:35;100841.88;;;18.11
65316;BMP280;51920;53.952;10.292;2022-08-01T03:35:01;100847.06;;;18.09
65316;BMP280;51920;53.952;10.292;2022-08-01T03:37:35;100852.13;;;18.10
65316;BMP280;51920;53.952;10.292;2022-08-01T03:40:08;100839.34;;;18.04
65316;BMP280;51920;53.952;10.292;2022-08-01T03:42:37;100837.38;;;18.04
65316;BMP280;51920;53.952;10.292;2022-08-01T03:45:07;100845.25;;;18.02
65316;BMP280;51920;53.952;10.292;2022-08-01T03:47:35;100848.34;;;18.04
65316;BMP280;51920;53.952;10.292;2022-08-01T03:50:02;100848.22;;;18.08
65316;BMP280;51920;53.952;10.292;2022-08-01T03:52:29;100858.34;;;18.11
65316;BMP280;51920;53.952;10.292;2022-08-01T03:54:58;100856.34;;;18.11
65316;BMP280;51920;53.952;10.292;2022-08-01T03:57:27;100856.13;;;18.06
65316;BMP280;51920;53.952;10.292;2022-08-01T03:59:55;100864.59;;;18.11
65316;BMP280;51920;53.952;10.292;2022-08-01T04:02:22;100858.00;;;18.09
65316;BMP280;51920;53.952;10.292;2022-08-01T04:04:48;100864.25;;;18.09
65316;BMP280;51920;53.952;10.292;2022-08-01T04:07:29;100857.59;;;18.10
65316;BMP280;51920;53.952;10.292;2022-08-01T04:09:55;100863.50;;;18.09
65316;BMP280;51920;53.952;10.292;2022-08-01T04:12:21;100863.91;;;18.07
65316;BMP280;51920;53.952;10.292;2022-08-01T04:14:47;100865.63;;;18.01
65316;BMP280;51920;53.952;10.292;2022-08-01T04:17:14;100868.03;;;17.99
65316;BMP280;51920;53.952;10.292;2022-08-01T04:19:40;100881.66;;;18.03
65316;BMP280;51920;53.952;10.292;2022-08-01T04:22:05;100884.38;;;18.03
65316;BMP280;51920;53.952;10.292;2022-08-01T04:24:32;100876.53;;;18.05
65316;BMP280;51920;53.952;10.292;2022-08-01T04:27:00;100885.59;;;18.02
65316;BMP280;51920;53.952;10.292;2022-08-01T04:29:28;100892.19;;;18.04
65316;BMP280;51920;53.952;10.292;2022-08-01T04:31:56;100886.63;;;18.08
65316;BMP280;51920;53.952;10.292;2022-08-01T04:34:26;100893.31;;;18.07
65316;BMP280;51920;53.952;10.292;2022-08-01T04:36:54;100901.53;;;18.07
65316;BMP280;51920;53.952;10.292;2022-08-01T04:39:23;100910.19;;;18.05
65316;BMP280;51920;53.952;10.292;2022-08-01T04:41:49;100908.22;;;18.06
65316;BMP280;51920;53.952;10.292;2022-08-01T04:44:16;100908.38;;;17.99
65316;BMP280;51920;53.952;10.292;2022-08-01T04:46:42;100912.34;;;17.98
65316;BMP280;51920;53.952;10.292;2022-08-01T04:49:10;100905.66;;;17.99
65316;BMP280;51920;53.952;10.292;2022-08-01T04:51:37;100916.09;;;18.04
65316;BMP280;51920;53.952;10.292;2022-08-01T04:54:14;100920.81;;;18.03
65316;BMP280;51920;53.952;10.292;2022-08-01T04:56:40;100918.50;;;18.02
65316;BMP280;51920;53.952;10.292;2022-08-01T04:59:06;100925.88;;;18.05
65316;BMP280;51920;53.952;10.292;2022-08-01T05:01:50;100923.66;;;18.00
65316;BMP280;51920;53.952;10.292;2022-08-01T05:04:16;100931.78;;;18.03
65316;BMP280;51920;53.952;10.292;2022-08-01T05:06:41;100932.63;;;18.00
65316;BMP280;51920;53.952;10.292;2022-08-01T05:09:06;100924.22;;;18.07
65316;BMP280;51920;53.952;10.292;2022-08-01T05:11:32;100923.56;;;18.03
65316;BMP280;51920;53.952;10.292;2022-08-01T05:13:57;100928.53;;;18.08
65316;BMP280;51920;53.952;10.292;2022-08-01T05:16:22;100925.00;;;18.08
65316;BMP280;51920;53.952;10.292;2022-08-01T05:18:48;100924.31;;;18.04
65316;BMP280;51920;53.952;10.292;2022-08-01T05:21:13;100935.28;;;18.04
65316;BMP280;51920;53.952;10.292;2022-08-01T05:23:39;100940.59;;;18.11
65316;BMP280;51920;53.952;10.292;2022-08-01T05:26:04;100928.78;;;18.14
65316;BMP280;51920;53.952;10.292;2022-08-01T05:28:30;100938.69;;;18.08
65316;BMP280;51920;53.952;10.292;2022-08-01T05:30:55;100936.22;;;18.13
65316;BMP280;51920;53.952;10.292;2022-08-01T05:33:22;100933.06;;;18.15
65316;BMP280;51920;53.952;10.292;2022-08-01T05:35:47;100938.09;;;18.17
65316;BMP280;51920;53.952;10.292;2022-08-01T05:38:12;100925.78;;;18.08
65316;BMP280;51920;53.952;10.292;2022-08-01T05:40:38;100936.66;;;18.12
65316;BMP280;51920;53.952;10.292;2022-08-01T05:43:03;100933.91;;;18.12
65316;BMP280;51920;53.952;10.292;2022-08-01T05:45:28;100938.19;;;18.13
65316;BMP280;51920;53.952;10.292;2022-08-01T05:47:54;100936.50;;;18.19
65316;BMP280;51920;53.952;10.292;2022-08-01T05:50:19;100945.91;;;18.18
65316;BMP280;51920;53.952;10.292;2022-08-01T05:52:44;100945.56;;;18.00
65316;BMP280;51920;53.952;10.292;2022-08-01T05:55:10;100945.44;;;17.87
65316;BMP280;51920;53.952;10.292;2022-08-01T05:57:35;100952.41;;;17.91
65316;BMP280;51920;53.952;10.292;2022-08-01T06:00:01;100947.41;;;17.86
65316;BMP280;51920;53.952;10.292;2022-08-01T06:02:26;100954.47;;;17.87
65316;BMP280;51920;53.952;10.292;2022-08-01T06:04:52;100950.91;;;17.87
65316;BMP280;51920;53.952;10.292;2022-08-01T06:07:18;100958.22;;;17.94
65316;BMP280;51920;53.952;10.292;2022-08-01T06:09:43;100960.97;;;17.94
65316;BMP280;51920;53.952;10.292;2022-08-01T06:12:08;100966.81;;;17.96
65316;BMP280;51920;53.952;10.292;2022-08-01T06:14:35;100961.31;;;17.96
65316;BMP280;51920;53.952;10.292;2022-08-01T06:17:00;100970.75;;;17.95
65316;BMP280;51920;53.952;10.292;2022-08-01T06:19:27;100976.56;;;17.97
65316;BMP280;51920;53.952;10.292;2022-08-01T06:21:52;100979.31;;;17.97
65316;BMP280;51920;53.952;10.292;2022-08-01T06:24:17;100980.94;;;17.94
65316;BMP280;51920;53.952;10.292;2022-08-01T06:26:43;100987.19;;;17.95
65316;BMP280;51920;53.952;10.292;2022-08-01T06:29:08;100982.72;;;17.84
65316;BMP280;51920;53.952;10.292;2022-08-01T06:31:33;100988.19;;;17.84
65316;BMP280;51920;53.952;10.292;2022-08-01T06:33:59;100989.59;;;17.92
65316;BMP280;51920;53.952;10.292;2022-08-01T06:36:24;100995.06;;;17.92
65316;BMP280;51920;53.952;10.292;2022-08-01T06:38:50;101000.53;;;17.92
65316;BMP280;51920;53.952;10.292;2022-08-01T06:41:16;100994.97;;;17.96
65316;BMP280;51920;53.952;10.292;2022-08-01T06:43:41;100993.34;;;17.99
65316;BMP280;51920;53.952;10.292;2022-08-01T06:46:07;100999.19;;;18.01
65316;BMP280;51920;53.952;10.292;2022-08-01T06:48:32;100996.50;;;17.97
65316;BMP280;51920;53.952;10.292;2022-08-01T06:50:57;100992.75;;;17.91
65316;BMP280;51920;53.952;10.292;2022-08-01T06:53:38;100995.06;;;17.92
65316;BMP280;51920;53.952;10.292;2022-08-01T06:56:05;100998.31;;;17.87
65316;BMP280;51920;53.952;10.292;2022-08-01T06:58:31;100999.84;;;17.88
65316;BMP280;51920;53.952;10.292;2022-08-01T07:00:56;101004.91;;;17.90
65316;BMP280;51920;53.952;10.292;2022-08-01T07:03:22;101014.84;;;17.84
65316;BMP280;51920;53.952;10.292;2022-08-01T07:05:47;101011.16;;;17.90
65316;BMP280;51920;53.952;10.292;2022-08-01T07:08:13;101013.41;;;17.96
65316;BMP280;51920;53.952;10.292;2022-08-01T07:10:38;101019.31;;;17.94
65316;BMP280;51920;53.952;10.292;2022-08-01T07:13:03;101011.69;;;17.85
65316;BMP280;51920;53.952;10.292;2022-08-01T07:15:29;101023.06;;;17.84
65316;BMP280;51920;53.952;10.292;2022-08-01T07:17:54;101010.13;;;17.84
65316;BMP280;51920;53.952;10.292;2022-08-01T07:20:20;101017.00;;;17.92
65316;BMP280;51920;53.952;10.292;2022-08-01T07:22:45;101018.53;;;17.94
65316;BMP280;51920;53.952;10.292;2022-08-01T07:25:10;101018.66;;;17.86
65316;BMP280;51920;53.952;10.292;2022-08-01T07:27:36;101020.66;;;17.86
65316;BMP280;51920;53.952;10.292;2022-08-01T07:30:04;101021.44;;;18.03
65316;BMP280;51920;53.952;10.292;2022-08-01T07:32:29;101031.31;;;18.00
65316;BMP280;51920;53.952;10.292;2022-08-01T07:34:55;101030.72;;;18.09
65316;BMP280;51920;53.952;10.292;2022-08-01T07:37:21;101032.97;;;18.30
65316;BMP280;51920;53.952;10.292;2022-08-01T07:39:50;101031.88;;;18.44
65316;BMP280;51920;53.952;10.292;2022-08-01T07:42:15;101037.59;;;18.50
65316;BMP280;51920;53.952;10.292;2022-08-01T07:44:41;101046.00;;;18.59
65316;BMP280;51920;53.952;10.292;2022-08-01T07:47:07;101053.66;;;18.68
65316;BMP280;51920;53.952;10.292;2022-08-01T07:49:32;101051.47;;;18.59
65316;BMP280;51920;53.952;10.292;2022-08-01T07:51:58;101059.81;;;18.72
65316;BMP280;51920;53.952;10.292;2022-08-01T07:54:23;101066.50;;;18.54
65316;BMP280;51920;53.952;10.292;2022-08-01T07:56:50;101066.59;;;18.34
65316;BMP280;51920;53.952;10.292;2022-08-01T07:59:16;101072.41;;;18.36
65316;BMP280;51920;53.952;10.292;2022-08-01T08:01:41;101081.47;;;18.17
65316;BMP280;51920;53.952;10.292;2022-08-01T08:04:07;101081.03;;;18.19
65316;BMP280;51920;53.952;10.292;2022-08-01T08:06:32;101090.38;;;18.21
65316;BMP280;51920;53.952;10.292;2022-08-01T08:08:58;101092.84;;;18.16
65316;BMP280;51920;53.952;10.292;2022-08-01T08:11:23;101093.09;;;18.05
65316;BMP280;51920;53.952;10.292;2022-08-01T08:13:48;101101.81;;;18.00
65316;BMP280;51920;53.952;10.292;2022-08-01T08:16:14;101095.31;;;18.10
65316;BMP280;51920;53.952;10.292;2022-08-01T08:18:39;101103.94;;;18.28
65316;BMP280;51920;53.952;10.292;2022-08-01T08:21:04;101103.00;;;17.99
65316;BMP280;51920;53.952;10.292;2022-08-01T08:23:30;101109.47;;;17.88
65316;BMP280;51920;53.952;10.292;2022-08-01T08:26:14;101106.38;;;17.86
65316;BMP280;51920;53.952;10.292;2022-08-01T08:28:39;101118.25;;;17.80
65316;BMP280;51920;53.952;10.292;2022-08-01T08:31:04;101121.31;;;17.85
65316;BMP280;51920;53.952;10.292;2022-08-01T08:33:30;101124.06;;;17.85
65316;BMP280;51920;53.952;10.292;2022-08-01T08:35:55;101119.47;;;17.79
65316;BMP280;51920;53.952;10.292;2022-08-01T08:38:21;101131.41;;;17.88
65316;BMP280;51920;53.952;10.292;2022-08-01T08:40:46;101126.91;;;17.78
65316;BMP280;51920;53.952;10.292;2022-08-01T08:43:12;101135.41;;;17.84
65316;BMP280;51920;53.952;10.292;2022-08-01T08:45:38;101136.25;;;17.81
65316;BMP280;51920;53.952;10.292;2022-08-01T08:48:05;101138.03;;;17.71
65316;BMP280;51920;53.952;10.292;2022-08-01T08:50:31;101146.28;;;18.07
65316;BMP280;51920;53.952;10.292;2022-08-01T08:52:59;101144.81;;;18.23
65316;BMP280;51920;53.952;10.292;2022-08-01T08:55:26;101153.53;;;18.18
65316;BMP280;51920;53.952;10.292;2022-08-01T08:57:52;101152.94;;;18.06
65316;BMP280;51920;53.952;10.292;2022-08-01T09:00:18;101162.47;;;18.02
65316;BMP280;51920;53.952;10.292;2022-08-01T09:02:45;101172.31;;;18.19
65316;BMP280;51920;53.952;10.292;2022-08-01T09:05:12;101171.22;;;18.33
65316;BMP280;51920;53.952;10.292;2022-08-01T09:07:38;101171.06;;;19.09
65316;BMP280;51920;53.952;10.292;2022-08-01T09:10:04;101166.19;;;19.46
65316;BMP280;51920;53.952;10.292;2022-08-01T09:12:30;101155.28;;;18.97
65316;BMP280;51920;53.952;10.292;2022-08-01T09:14:55;101168.16;;;19.00
65316;BMP280;51920;53.952;10.292;2022-08-01T09:17:20;101173.19;;;19.34
65316;BMP280;51920;53.952;10.292;2022-08-01T09:19:48;101176.78;;;19.77
65316;BMP280;51920;53.952;10.292;2022-08-01T09:22:18;101168.66;;;19.86
65316;BMP280;51920;53.952;10.292;2022-08-01T09:25:09;101177.81;;;19.66
65316;BMP280;51920;53.952;10.292;2022-08-01T09:27:37;101175.13;;;19.92
65316;BMP280;51920;53.952;10.292;2022-08-01T09:30:10;101188.63;;;20.15
65316;BMP280;51920;53.952;10.292;2022-08-01T09:32:35;101187.19;;;20.24
65316;BMP280;51920;53.952;10.292;2022-08-01T09:35:24;101191.72;;;20.81
65316;BMP280;51920;53.952;10.292;2022-08-01T09:37:50;101187.81;;;21.04
65316;BMP280;51920;53.952;10.292;2022-08-01T09:40:15;101182.22;;;20.70
65316;BMP280;51920;53.952;10.292;2022-08-01T09:42:41;101191.91;;;20.87
65316;BMP280;51920;53.952;10.292;2022-08-01T09:45:06;101195.03;;;21.46
65316;BMP280;51920;53.952;10.292;2022-08-01T09:47:38;101197.41;;;21.56
65316;BMP280;51920;53.952;10.292;2022-08-01T09:50:05;101206.63;;;21.41
65316;BMP280;51920;53.952;10.292;2022-08-01T09:52:30;101202.56;;;21.45
65316;BMP280;51920;53.952;10.292;2022-08-01T09:54:59;101201.41;;;21.77
65316;BMP280;51920;53.952;10.292;2022-08-01T09:57:26;101210.06;;;21.45
65316;BMP280;51920;53.952;10.292;2022-08-01T09:59:53;101210.34;;;21.60
65316;BMP280;51920;53.952;10.292;2022-08-01T10:02:51;101207.44;;;21.85
65316;BMP280;51920;53.952;10.292;2022-08-01T10:05:17;101207.31;;;21.67
65316;BMP280;51920;53.952;10.292;2022-08-01T10:08:00;101207.97;;;22.02
65316;BMP280;51920;53.952;10.292;2022-08-01T10:10:27;101205.78;;;21.66
65316;BMP280;51920;53.952;10.292;2022-08-01T10:12:55;101198.59;;;21.68
65316;BMP280;51920;53.952;10.292;2022-08-01T10:15:21;101206.25;;;21.64
65316;BMP280;51920;53.952;10.292;2022-08-01T10:17:58;101201.94;;;22.16
65316;BMP280;51920;53.952;10.292;2022-08-01T10:20:27;101214.34;;;21.90
65316;BMP280;51920;53.952;10.292;2022-08-01T10:22:54;101201.97;;;22.25
65316;BMP280;51920;53.952;10.292;2022-08-01T10:25:20;101217.28;;;22.17
65316;BMP280;51920;53.952;10.292;2022-08-01T10:27:48;101216.72;;;22.81
65316;BMP280;51920;53.952;10.292;2022-08-01T10:30:15;101212.47;;;22.99
65316;BMP280;51920;53.952;10.292;2022-08-01T10:32:41;101213.06;;;22.84
65316;BMP280;51920;53.952;10.292;2022-08-01T10:35:08;101217.88;;;22.43
65316;BMP280;51920;53.952;10.292;2022-08-01T10:37:34;101209.88;;;22.45
65316;BMP280;51920;53.952;10.292;2022-08-01T10:40:03;101206.53;;;22.51
65316;BMP280;51920;53.952;10.292;2022-08-01T10:42:30;101215.19;;;22.71
65316;BMP280;51920;53.952;10.292;2022-08-01T10:44:57;101216.94;;;23.05
65316;BMP280;51920;53.952;10.292;2022-08-01T10:47:34;101213.84;;;22.04
65316;BMP280;51920;53.952;10.292;2022-08-01T10:50:11;101226.09;;;22.34
65316;BMP280;51920;53.952;10.292;2022-08-01T10:52:38;101219.19;;;22.88
65316;BMP280;51920;53.952;10.292;2022-08-01T10:55:07;101215.22;;;22.89
65316;BMP280;51920;53.952;10.292;2022-08-01T10:58:00;101221.28;;;22.66
65316;BMP280;51920;53.952;10.292;2022-08-01T11:00:32;101226.28;;;22.99
65316;BMP280;51920;53.952;10.292;2022-08-01T11:03:00;101226.47;;;22.55
65316;BMP280;51920;53.952;10.292;2022-08-01T11:05:28;101230.00;;;22.64
65316;BMP280;51920;53.952;10.292;2022-08-01T11:07:55;101223.81;;;22.91
65316;BMP280;51920;53.952;10.292;2022-08-01T11:10:42;101220.38;;;22.69
65316;BMP280;51920;53.952;10.292;2022-08-01T11:13:10;101225.34;;;22.43
65316;BMP280;51920;53.952;10.292;2022-08-01T11:15:43;101221.22;;;22.38
65316;BMP280;51920;53.952;10.292;2022-08-01T11:18:34;101228.25;;;22.39
65316;BMP280;51920;53.952;10.292;2022-08-01T11:21:01;101228.13;;;22.43
65316;BMP280;51920;53.952;10.292;2022-08-01T11:23:29;101231.13;;;22.26
65316;BMP280;51920;53.952;10.292;2022-08-01T11:28:22;101232.63;;;22.59
65316;BMP280;51920;53.952;10.292;2022-08-01T11:38:39;101239.50;;;23.22
65316;BMP280;51920;53.952;10.292;2022-08-01T11:41:28;101236.38;;;22.83
65316;BMP280;51920;53.952;10.292;2022-08-01T11:44:14;101234.72;;;22.86
65316;BMP280;51920;53.952;10.292;2022-08-01T11:47:08;101227.84;;;22.50
65316;BMP280;51920;53.952;10.292;2022-08-01T11:52:12;101235.00;;;22.38
65316;BMP280;51920;53.952;10.292;2022-08-01T11:54:45;101233.78;;;22.39
65316;BMP280;51920;53.952;10.292;2022-08-01T11:57:20;101227.22;;;22.46
65316;BMP280;51920;53.952;10.292;2022-08-01T11:59:47;101232.13;;;22.42
65316;BMP280;51920;53.952;10.292;2022-08-01T12:02:20;101238.75;;;22.54
65316;BMP280;51920;53.952;10.292;2022-08-01T12:04:48;101240.63;;;22.66
65316;BMP280;51920;53.952;10.292;2022-08-01T12:07:14;101247.72;;;22.76
65316;BMP280;51920;53.952;10.292;2022-08-01T12:09:40;101249.00;;;22.44
65316;BMP280;51920;53.952;10.292;2022-08-01T12:12:06;101246.34;;;22.40
65316;BMP280;51920;53.952;10.292;2022-08-01T12:14:31;101242.66;;;22.34
65316;BMP280;51920;53.952;10.292;2022-08-01T12:16:57;101241.09;;;22.24
65316;BMP280;51920;53.952;10.292;2022-08-01T12:19:24;101243.47;;;22.44
65316;BMP280;51920;53.952;10.292;2022-08-01T12:24:35;101246.97;;;22.44
65316;BMP280;51920;53.952;10.292;2022-08-01T12:27:01;101241.81;;;22.24
65316;BMP280;51920;53.952;10.292;2022-08-01T12:29:38;101252.06;;;22.15
65316;BMP280;51920;53.952;10.292;2022-08-01T12:32:13;101249.16;;;22.18
65316;BMP280;51920;53.952;10.292;2022-08-01T12:34:45;101255.44;;;22.50
65316;BMP280;51920;53.952;10.292;2022-08-01T12:37:10;101252.78;;;22.37
65316;BMP280;51920;53.952;10.292;2022-08-01T12:39:36;101258.91;;;22.32
65316;BMP280;51920;53.952;10.292;2022-08-01T12:42:06;101263.00;;;22.59
65316;BMP280;51920;53.952;10.292;2022-08-01T12:44:32;101260.47;;;22.42
65316;BMP280;51920;53.952;10.292;2022-08-01T12:46:58;101260.59;;;22.70
65316;BMP280;51920;53.952;10.292;2022-08-01T12:49:25;101260.94;;;22.10
65316;BMP280;51920;53.952;10.292;2022-08-01T12:51:50;101261.75;;;22.19
65316;BMP280;51920;53.952;10.292;2022-08-01T12:54:16;101260.28;;;22.28
65316;BMP280;51920;53.952;10.292;2022-08-01T12:56:42;101258.84;;;22.23
65316;BMP280;51920;53.952;10.292;2022-08-01T12:59:21;101267.97;;;22.11
65316;BMP280;51920;53.952;10.292;2022-08-01T13:01:49;101264.53;;;21.97
65316;BMP280;51920;53.952;10.292;2022-08-01T13:04:14;101256.31;;;21.85
65316;BMP280;51920;53.952;10.292;2022-08-01T13:06:40;101260.88;;;22.00
65316;BMP280;51920;53.952;10.292;2022-08-01T13:09:07;101260.53;;;21.98
65316;BMP280;51920;53.952;10.292;2022-08-01T13:11:32;101258.75;;;22.05
65316;BMP280;51920;53.952;10.292;2022-08-01T13:13:58;101262.09;;;21.99
65316;BMP280;51920;53.952;10.292;2022-08-01T13:16:25;101265.78;;;21.62
65316;BMP280;51920;53.952;10.292;2022-08-01T13:18:53;101261.25;;;21.68
65316;BMP280;51920;53.952;10.292;2022-08-01T13:21:20;101265.56;;;21.91
65316;BMP280;51920;53.952;10.292;2022-08-01T13:24:08;101267.75;;;21.96
65316;BMP280;51920;53.952;10.292;2022-08-01T13:26:56;101261.94;;;21.81
65316;BMP280;51920;53.952;10.292;2022-08-01T13:29:37;101264.59;;;21.85
65316;BMP280;51920;53.952;10.292;2022-08-01T13:32:20;101261.94;;;21.81
65316;BMP280;51920;53.952;10.292;2022-08-01T13:34:45;101268.94;;;21.73
65316;BMP280;51920;53.952;10.292;2022-08-01T13:37:11;101261.72;;;21.88
65316;BMP280;51920;53.952;10.292;2022-08-01T13:39:36;101262.41;;;21.79
65316;BMP280;51920;53.952;10.292;2022-08-01T13:42:16;101260.69;;;21.95
65316;BMP280;51920;53.952;10.292;2022-08-01T13:44:42;101255.78;;;21.77
65316;BMP280;51920;53.952;10.292;2022-08-01T13:47:10;101256.69;;;21.74
65316;BMP280;51920;53.952;10.292;2022-08-01T13:49:36;101256.31;;;21.63
65316;BMP280;51920;53.952;10.292;2022-08-01T13:52:02;101258.44;;;21.59
65316;BMP280;51920;53.952;10.292;2022-08-01T13:54:27;101263.03;;;21.62
65316;BMP280;51920;53.952;10.292;2022-08-01T13:56:53;101269.53;;;21.90
65316;BMP280;51920;53.952;10.292;2022-08-01T13:59:19;101269.22;;;21.88
65316;BMP280;51920;53.952;10.292;2022-08-01T14:01:44;101265.00;;;21.61
65316;BMP280;51920;53.952;10.292;2022-08-01T14:04:10;101266.81;;;21.77
65316;BMP280;51920;53.952;10.292;2022-08-01T14:06:35;101266.44;;;21.66
65316;BMP280;51920;53.952;10.292;2022-08-01T14:09:03;101272.97;;;21.59
65316;BMP280;51920;53.952;10.292;2022-08-01T14:11:28;101260.66;;;21.51